Time;durP1;ratioP1;P1;durP2;ratioP2;P2;SDS_P1;SDS_P2;PMS_P1;PMS_P2;Temp;Humidity;BMP_temperature;BMP_pressure;BME280_temperature;BME280_humidity;BME280_pressure;Samples;Min_cycle;Max_cycle;Signal;HPM_P1;HPM_P2
2021/07/10 00:01:04;;;;;;;;;15.75;13.25;;;;;19.47;69.50;101674.56;4956193;28;45362;-70
2021/07/10 00:03:29;;;;;;;;;17.25;15.25;;;;;19.48;70.16;101665.63;4972473;28;45351;-71
2021/07/10 00:05:55;;;;;;;;;16.25;14.50;;;;;19.45;69.87;101655.13;4968727;28;46951;-70
2021/07/10 00:08:20;;;;;;;;;18.75;15.25;;;;;19.52;70.23;101661.78;4966945;28;49512;-70
2021/07/10 00:10:46;;;;;;;;;14.50;13.00;;;;;19.51;70.54;101654.72;4967423;28;45432;-70
2021/07/10 00:13:11;;;;;;;;;15.50;15.50;;;;;19.58;70.69;101665.03;4968668;28;45457;-70
2021/07/10 00:15:37;;;;;;;;;13.50;13.00;;;;;19.59;70.86;101648.06;4971629;28;45350;-71
2021/07/10 00:18:03;;;;;;;;;17.75;13.50;;;;;19.54;70.63;101643.03;4970174;28;45465;-71
2021/07/10 00:20:28;;;;;;;;;17.00;15.00;;;;;19.58;71.17;101649.88;4965945;28;45420;-70
2021/07/10 00:22:53;;;;;;;;;15.50;13.50;;;;;19.60;70.86;101652.47;4959692;28;45506;-70
2021/07/10 00:25:19;;;;;;;;;14.75;12.75;;;;;19.60;71.16;101655.13;4963351;28;46355;-70
2021/07/10 00:27:47;;;;;;;;;17.75;14.00;;;;;19.60;70.98;101655.13;4970481;28;45396;-70
2021/07/10 00:30:14;;;;;;;;;16.00;14.00;;;;;19.60;71.05;101652.47;4971539;28;45427;-70
2021/07/10 00:32:40;;;;;;;;;16.75;14.50;;;;;19.59;71.22;101648.06;4966385;28;49719;-71
2021/07/10 00:35:06;;;;;;;;;18.00;15.25;;;;;19.59;71.54;101640.06;4966663;28;45558;-70
2021/07/10 00:37:32;;;;;;;;;14.50;14.00;;;;;19.58;71.16;101635.69;4966366;28;45318;-70
2021/07/10 00:39:57;;;;;;;;;12.75;12.75;;;;;19.47;71.44;101607.94;4970579;28;45274;-71
2021/07/10 00:42:22;;;;;;;;;16.25;12.25;;;;;19.54;71.16;101621.69;4972051;28;45284;-70
2021/07/10 00:44:49;;;;;;;;;11.00;11.00;;;;;19.54;71.43;101622.53;4966675;28;46239;-70
2021/07/10 00:47:15;;;;;;;;;15.25;12.50;;;;;19.56;71.55;101625.09;4966665;28;45746;-71
2021/07/10 00:49:40;;;;;;;;;15.00;13.50;;;;;19.53;71.23;101615.50;4964076;28;45255;-70
2021/07/10 00:52:06;;;;;;;;;14.25;12.75;;;;;19.54;71.08;101617.22;4955384;28;45634;-70
2021/07/10 00:54:32;;;;;;;;;14.25;14.00;;;;;19.51;71.13;101612.06;4963144;28;46079;-71
2021/07/10 00:56:58;;;;;;;;;15.25;11.25;;;;;19.49;71.40;101614.00;4968346;28;45367;-71
2021/07/10 00:59:27;;;;;;;;;10.50;8.00;;;;;19.48;70.81;101603.44;4966825;28;45384;-70
2021/07/10 01:01:53;;;;;;;;;13.25;11.00;;;;;19.44;71.30;101607.25;4965641;28;45348;-71
2021/07/10 01:04:19;;;;;;;;;13.75;12.50;;;;;19.36;71.22;101594.44;4967242;28;46117;-70
2021/07/10 01:06:47;;;;;;;;;14.50;12.75;;;;;19.43;71.43;101601.09;4961948;28;48119;-70
2021/07/10 01:09:12;;;;;;;;;15.75;14.50;;;;;19.34;71.50;101588.34;4965394;28;45548;-70
2021/07/10 01:11:38;;;;;;;;;13.00;13.00;;;;;19.38;71.34;101597.88;4965727;28;45470;-71
2021/07/10 01:14:04;;;;;;;;;14.75;13.25;;;;;19.35;71.55;101600.72;4966266;28;45284;-71
2021/07/10 01:16:29;;;;;;;;;15.25;13.00;;;;;19.33;71.59;101605.31;4966139;28;45514;-70
2021/07/10 01:18:54;;;;;;;;;14.75;12.00;;;;;19.34;71.12;101604.34;4970250;28;49532;-70
2021/07/10 01:21:20;;;;;;;;;14.00;11.00;;;;;19.36;71.83;101591.75;4962096;28;45430;-71
2021/07/10 01:23:47;;;;;;;;;15.25;13.75;;;;;19.39;71.61;101585.38;4965511;28;46274;-71
2021/07/10 01:26:13;;;;;;;;;15.25;12.75;;;;;19.42;71.46;101585.16;4966039;28;45559;-70
2021/07/10 01:28:39;;;;;;;;;14.75;13.25;;;;;19.44;70.96;101576.13;4966167;28;45335;-70
2021/07/10 01:31:05;;;;;;;;;12.75;11.50;;;;;19.46;71.19;101576.00;4967714;28;45511;-70
2021/07/10 01:33:30;;;;;;;;;19.50;15.50;;;;;19.48;70.85;101569.63;4970797;28;46336;-70
2021/07/10 01:35:56;;;;;;;;;15.25;14.50;;;;;19.49;70.92;101563.34;4967745;28;45639;-71
2021/07/10 01:38:21;;;;;;;;;12.25;12.25;;;;;19.50;70.49;101564.19;4963253;28;45472;-70
2021/07/10 01:40:47;;;;;;;;;15.50;12.00;;;;;19.50;70.26;101559.72;4955310;28;45492;-70
2021/07/10 01:43:13;;;;;;;;;10.25;10.25;;;;;19.51;70.15;101563.22;4955494;28;46162;-71
2021/07/10 01:45:39;;;;;;;;;16.00;12.75;;;;;19.53;69.64;101548.00;4970659;28;46065;-71
2021/07/10 01:48:06;;;;;;;;;11.00;9.75;;;;;19.55;69.58;101548.75;4969572;28;45489;-70
2021/07/10 01:50:31;;;;;;;;;10.75;10.00;;;;;19.55;69.48;101538.94;4964855;28;45506;-70
2021/07/10 01:52:57;;;;;;;;;15.50;13.25;;;;;19.49;69.08;101530.50;4961160;28;46109;-71
2021/07/10 01:55:22;;;;;;;;;11.75;10.75;;;;;19.56;69.48;101537.13;4963852;28;45532;-70
2021/07/10 01:57:49;;;;;;;;;10.50;10.50;;;;;19.54;68.90;101518.56;4970489;28;45340;-70
2021/07/10 02:00:16;;;;;;;;;13.75;12.00;;;;;19.52;68.39;101517.81;4967460;28;45420;-70
2021/07/10 02:02:42;;;;;;;;;11.00;10.50;;;;;19.49;68.49;101520.69;4967124;28;46531;-70
2021/07/10 02:05:09;;;;;;;;;15.00;12.75;;;;;19.49;68.57;101517.16;4968439;28;46057;-70
2021/07/10 02:07:34;;;;;;;;;13.50;13.25;;;;;19.43;68.64;101509.59;4990979;28;45436;-70
2021/07/10 02:10:00;;;;;;;;;12.75;12.75;;;;;19.47;68.17;101511.97;4958623;28;45306;-71
2021/07/10 02:12:26;;;;;;;;;14.75;12.75;;;;;19.44;68.24;101508.63;4961140;28;46854;-70
2021/07/10 02:14:52;;;;;;;;;10.75;8.50;;;;;19.49;68.24;101510.03;4968981;28;45457;-70
2021/07/10 02:17:17;;;;;;;;;13.00;11.50;;;;;19.49;68.66;101502.03;4962031;28;45537;-71
2021/07/10 02:19:43;;;;;;;;;11.75;11.50;;;;;19.47;68.49;101501.28;4957290;28;48137;-70
2021/07/10 02:22:08;;;;;;;;;11.50;11.25;;;;;19.41;68.17;101487.50;4968343;28;46155;-71
2021/07/10 02:24:35;;;;;;;;;13.50;12.75;;;;;19.46;67.95;101499.56;4973936;28;45532;-71
2021/07/10 02:27:01;;;;;;;;;13.50;12.00;;;;;19.46;68.50;101502.22;4968125;28;45400;-71
2021/07/10 02:29:27;;;;;;;;;8.50;8.50;;;;;19.43;68.26;101494.47;4966224;28;45364;-71
2021/07/10 02:31:52;;;;;;;;;13.00;11.75;;;;;19.49;68.55;101509.19;4965873;28;46131;-70
2021/07/10 02:34:17;;;;;;;;;13.50;10.75;;;;;19.43;68.16;101491.78;4969720;28;45500;-70
2021/07/10 02:36:43;;;;;;;;;12.75;10.50;;;;;19.51;68.74;101496.59;4958010;28;45666;-70
2021/07/10 02:39:08;;;;;;;;;12.25;11.75;;;;;19.52;68.55;101499.16;4972621;28;45379;-70
2021/07/10 02:41:34;;;;;;;;;10.50;10.25;;;;;19.53;68.64;101494.69;4977170;28;46147;-70
2021/07/10 02:43:59;;;;;;;;;10.25;10.25;;;;;19.52;68.70;101491.16;4987651;28;45296;-71
2021/07/10 02:46:25;;;;;;;;;12.00;10.25;;;;;19.52;68.68;101492.94;4982198;28;45360;-71
2021/07/10 02:48:50;;;;;;;;;9.25;8.00;;;;;19.51;68.10;101491.25;4973738;28;45431;-71
2021/07/10 02:51:15;;;;;;;;;13.00;11.25;;;;;19.54;68.11;101489.25;4962736;28;46567;-71
2021/07/10 02:53:42;;;;;;;;;11.25;9.25;;;;;19.55;68.10;101485.59;4967063;28;46108;-71
2021/07/10 02:56:07;;;;;;;;;9.25;9.00;;;;;19.54;68.45;101481.25;4966270;28;45378;-71
2021/07/10 02:58:32;;;;;;;;;13.75;11.00;;;;;19.52;67.76;101484.94;4958593;28;45334;-71
2021/07/10 03:00:58;;;;;;;;;8.00;8.00;;;;;19.45;67.64;101471.19;4970535;28;45389;-71
2021/07/10 03:03:23;;;;;;;;;12.00;10.75;;;;;19.48;68.08;101478.16;4972786;28;45560;-71
2021/07/10 03:05:49;;;;;;;;;9.50;9.50;;;;;19.44;68.07;101477.50;4968289;28;45388;-71
2021/07/10 03:08:15;;;;;;;;;10.25;9.25;;;;;19.40;67.95;101469.81;4967888;28;47380;-71
2021/07/10 03:10:42;;;;;;;;;11.75;9.50;;;;;19.36;68.02;101463.81;4967026;28;51680;-71
2021/07/10 03:13:08;;;;;;;;;16.50;11.50;;;;;19.34;68.28;101462.22;4956871;28;45552;-71
2021/07/10 03:15:34;;;;;;;;;12.50;11.75;;;;;19.34;68.04;101460.41;4972430;28;45420;-70
2021/07/10 03:17:59;;;;;;;;;10.75;10.25;;;;;19.28;68.26;101455.50;4964969;28;45336;-71
2021/07/10 03:20:25;;;;;;;;;11.25;9.25;;;;;19.28;68.45;101456.38;4964224;28;46163;-70
2021/07/10 03:22:51;;;;;;;;;12.25;10.00;;;;;19.27;68.51;101461.81;4967809;28;45516;-70
2021/07/10 03:25:17;;;;;;;;;10.25;9.50;;;;;19.20;67.89;101466.69;4968659;28;45441;-71
2021/07/10 03:27:44;;;;;;;;;10.00;9.75;;;;;19.17;68.04;101463.38;4963335;28;45321;-70
2021/07/10 03:30:11;;;;;;;;;12.50;11.00;;;;;19.11;68.48;101453.16;4988725;28;46358;-71
2021/07/10 03:32:38;;;;;;;;;11.00;11.00;;;;;19.11;68.66;101456.66;4968344;28;45271;-70
2021/07/10 03:35:05;;;;;;;;;9.75;9.75;;;;;19.10;68.76;101436.28;4967690;28;45465;-71
2021/07/10 03:37:31;;;;;;;;;11.25;10.50;;;;;19.08;68.49;101443.53;4967487;28;45492;-71
2021/07/10 03:39:56;;;;;;;;;15.00;13.50;;;;;19.04;68.85;101447.34;4971171;28;45909;-71
2021/07/10 03:42:21;;;;;;;;;10.25;9.50;;;;;19.00;68.92;101446.72;4970915;28;45341;-71
2021/07/10 03:44:47;;;;;;;;;12.50;11.25;;;;;18.98;68.57;101445.97;4968102;28;45445;-71
2021/07/10 03:47:12;;;;;;;;;12.50;11.25;;;;;18.95;68.53;101446.19;4964647;28;45513;-70
2021/07/10 03:49:37;;;;;;;;;13.00;9.25;;;;;18.92;69.01;101451.69;4965459;28;46180;-71
2021/07/10 03:52:03;;;;;;;;;12.50;9.50;;;;;18.91;69.07;101455.31;4969228;28;45489;-71
2021/07/10 03:54:28;;;;;;;;;11.50;10.50;;;;;18.92;68.79;101457.03;4972725;28;45404;-71
2021/07/10 03:56:53;;;;;;;;;10.50;10.25;;;;;18.94;68.97;101452.44;4968643;28;47706;-70
2021/07/10 03:59:19;;;;;;;;;15.75;11.25;;;;;18.97;69.37;101454.91;4966851;28;46205;-71
2021/07/10 04:01:45;;;;;;;;;12.50;11.00;;;;;19.00;69.18;101452.06;4966175;28;45449;-70
2021/07/10 04:04:12;;;;;;;;;13.25;12.00;;;;;19.02;69.14;101450.13;4968681;28;45361;-71
2021/07/10 04:06:37;;;;;;;;;17.00;9.75;;;;;19.05;68.60;101446.38;4957227;28;45571;-71
2021/07/10 04:09:03;;;;;;;;;7.25;7.25;;;;;19.04;68.43;101442.88;4970188;28;45885;-71
2021/07/10 04:11:29;;;;;;;;;10.50;10.00;;;;;19.05;69.09;101443.72;4958286;28;46053;-71
2021/07/10 04:13:54;;;;;;;;;11.00;9.75;;;;;19.02;68.96;101447.47;4960067;28;45286;-70
2021/07/10 04:16:19;;;;;;;;;12.25;11.00;;;;;19.02;68.53;101441.28;4958347;28;45524;-71
2021/07/10 04:18:45;;;;;;;;;15.75;13.00;;;;;18.95;68.60;101438.19;4969699;28;46126;-71
2021/07/10 04:21:10;;;;;;;;;13.00;10.50;;;;;18.95;68.75;101438.19;4963136;28;45531;-70
2021/07/10 04:23:36;;;;;;;;;11.00;11.00;;;;;18.94;68.78;101431.13;4965769;28;45234;-70
2021/07/10 04:26:01;;;;;;;;;14.75;12.75;;;;;18.97;68.77;101433.59;4961265;28;45369;-70
2021/07/10 04:28:26;;;;;;;;;16.75;11.25;;;;;18.99;69.25;101436.16;4956138;28;46115;-70
2021/07/10 04:30:52;;;;;;;;;15.75;10.75;;;;;19.02;68.67;101433.28;4969702;28;45580;-71
2021/07/10 04:33:17;;;;;;;;;13.50;11.00;;;;;19.04;69.03;101436.69;4971796;28;45387;-70
2021/07/10 04:35:42;;;;;;;;;9.50;9.00;;;;;19.06;68.90;101433.94;4966721;28;45374;-71
2021/07/10 04:38:08;;;;;;;;;9.50;9.50;;;;;19.05;69.05;101433.06;4966239;28;49039;-71
2021/07/10 04:40:33;;;;;;;;;14.75;12.75;;;;;18.99;68.54;101428.16;4965306;28;45567;-70
2021/07/10 04:42:59;;;;;;;;;12.25;10.00;;;;;19.10;69.42;101443.41;4955693;28;45643;-71
2021/07/10 04:45:25;;;;;;;;;11.00;9.00;;;;;19.13;68.95;101440.56;4971474;28;45390;-71
2021/07/10 04:47:50;;;;;;;;;14.00;12.75;;;;;19.14;68.84;101444.94;4963727;28;47085;-70
2021/07/10 04:50:16;;;;;;;;;11.25;8.75;;;;;19.15;69.05;101449.28;4962087;28;45468;-71
2021/07/10 04:52:42;;;;;;;;;11.00;9.00;;;;;19.18;69.10;101454.44;4958616;28;45274;-70
2021/07/10 04:55:09;;;;;;;;;11.50;10.25;;;;;19.18;69.46;101441.09;4968888;28;45500;-70
2021/07/10 04:57:35;;;;;;;;;11.25;11.25;;;;;19.10;69.37;101441.59;4970991;28;47402;-70
2021/07/10 05:00:00;;;;;;;;;12.75;9.25;;;;;19.20;68.70;101452.50;4968615;28;45494;-70
2021/07/10 05:02:26;;;;;;;;;11.50;9.25;;;;;19.19;68.87;101448.13;4966144;28;45457;-70
2021/07/10 05:04:51;;;;;;;;;9.50;9.50;;;;;19.19;69.35;101451.66;4965492;28;45351;-71
2021/07/10 05:07:16;;;;;;;;;12.75;11.00;;;;;19.21;68.72;101441.75;4966864;28;55517;-70
2021/07/10 05:09:42;;;;;;;;;10.25;10.00;;;;;19.24;68.53;101446.88;4970680;28;56260;-70
2021/07/10 05:12:07;;;;;;;;;12.50;10.75;;;;;19.26;68.64;101442.31;4968298;28;45457;-70
2021/07/10 05:14:32;;;;;;;;;11.50;10.75;;;;;19.28;68.81;101445.72;4965781;28;45316;-71
2021/07/10 05:16:58;;;;;;;;;13.25;9.50;;;;;19.31;68.40;101447.28;4965907;28;45444;-70
2021/07/10 05:19:23;;;;;;;;;10.00;10.00;;;;;19.38;68.42;101459.25;4964022;28;45515;-70
2021/07/10 05:21:48;;;;;;;;;12.00;9.00;;;;;19.40;68.16;101446.66;4963789;28;48292;-71
2021/07/10 05:24:14;;;;;;;;;9.50;7.75;;;;;19.48;68.89;101457.66;4970670;28;45483;-70
2021/07/10 05:26:39;;;;;;;;;12.75;9.00;;;;;19.53;68.04;101455.53;4965146;28;47104;-71
2021/07/10 05:29:05;;;;;;;;;13.50;10.75;;;;;19.58;68.69;101454.38;4953678;28;45496;-71
2021/07/10 05:31:31;;;;;;;;;14.75;10.50;;;;;19.59;68.00;101446.28;4964570;28;45437;-70
2021/07/10 05:33:56;;;;;;;;;13.00;9.50;;;;;19.58;68.37;101435.72;4963453;28;45595;-71
2021/07/10 05:36:22;;;;;;;;;10.50;10.00;;;;;19.61;68.13;101449.69;4964748;28;60230;-71
2021/07/10 05:38:47;;;;;;;;;8.00;7.50;;;;;19.61;68.67;101444.38;4968180;28;45571;-71
2021/07/10 05:41:12;;;;;;;;;14.25;11.50;;;;;19.62;68.49;101442.56;4959465;28;45677;-70
2021/07/10 05:43:38;;;;;;;;;13.50;10.75;;;;;19.59;67.94;101432.09;4959809;28;45390;-70
2021/07/10 05:46:03;;;;;;;;;10.25;10.25;;;;;19.58;68.53;101439.22;4972287;28;46026;-70
2021/07/10 05:48:28;;;;;;;;;13.75;12.00;;;;;19.58;68.27;101430.38;4966886;28;46722;-70
2021/07/10 05:50:54;;;;;;;;;12.50;10.75;;;;;19.61;68.32;101422.19;4970540;28;45393;-71
2021/07/10 05:53:19;;;;;;;;;11.50;11.25;;;;;19.62;68.19;101419.41;4964067;28;45473;-70
2021/07/10 05:55:45;;;;;;;;;9.25;9.00;;;;;19.68;68.45;101427.00;4966534;28;45515;-71
2021/07/10 05:58:11;;;;;;;;;11.50;10.75;;;;;19.76;68.65;101426.44;4958232;28;45565;-70
2021/07/10 06:00:37;;;;;;;;;11.00;10.00;;;;;19.85;68.39;101417.78;4969426;28;45962;-71
2021/07/10 06:03:02;;;;;;;;;15.25;12.50;;;;;19.95;68.20;101418.84;4957450;28;45362;-71
2021/07/10 06:05:28;;;;;;;;;14.50;12.75;;;;;20.07;67.64;101417.97;4966394;28;46172;-71
2021/07/10 06:07:54;;;;;;;;;10.00;9.75;;;;;20.24;67.34;101421.22;4969084;28;46822;-71
2021/07/10 06:10:21;;;;;;;;;15.75;13.00;;;;;20.53;66.83;101416.47;4962908;28;45447;-71
2021/07/10 06:12:47;;;;;;;;;13.25;12.00;;;;;21.33;66.46;101413.97;4957748;28;45429;-70
2021/07/10 06:15:13;;;;;;;;;10.50;10.50;;;;;21.58;65.15;101413.75;4972705;28;45456;-70
2021/07/10 06:17:43;;;;;;;;;12.25;11.25;;;;;21.56;64.64;101407.69;4968925;28;45328;-71
2021/07/10 06:20:12;;;;;;;;;9.50;8.00;;;;;21.66;64.81;101417.66;4968996;28;45681;-71
2021/07/10 06:22:38;;;;;;;;;11.00;11.00;;;;;21.78;64.40;101414.03;4970097;28;45601;-71
2021/07/10 06:25:06;;;;;;;;;17.00;10.25;;;;;21.88;63.88;101413.16;4972030;28;45793;-71
2021/07/10 06:27:32;;;;;;;;;10.50;9.75;;;;;22.01;63.66;101405.00;4973473;28;46027;-71
2021/07/10 06:29:57;;;;;;;;;10.50;10.25;;;;;22.20;63.51;101404.41;4970173;28;45406;-71
2021/07/10 06:32:22;;;;;;;;;12.75;9.00;;;;;22.32;63.03;101407.88;4968629;28;45299;-71
2021/07/10 06:34:48;;;;;;;;;14.25;10.25;;;;;22.33;62.40;101407.75;4968124;28;47283;-70
2021/07/10 06:37:13;;;;;;;;;16.00;11.75;;;;;22.34;62.63;101417.53;4970246;28;45509;-71
2021/07/10 06:39:38;;;;;;;;;10.75;10.25;;;;;22.25;62.29;101406.69;4972577;28;45386;-71
2021/07/10 06:42:04;;;;;;;;;10.75;9.00;;;;;22.09;62.43;101410.59;4972028;28;46952;-71
2021/07/10 06:44:29;;;;;;;;;8.00;8.00;;;;;21.95;62.64;101410.00;4968513;28;46000;-71
2021/07/10 06:46:55;;;;;;;;;10.75;10.50;;;;;21.87;62.60;101402.56;4964308;28;45513;-70
2021/07/10 06:49:21;;;;;;;;;10.75;9.75;;;;;21.93;62.79;101401.25;4956543;28;48237;-70
2021/07/10 06:51:46;;;;;;;;;11.50;9.75;;;;;22.06;62.62;101408.16;4957069;28;45339;-70
2021/07/10 06:54:12;;;;;;;;;14.50;10.75;;;;;22.28;62.78;101393.91;4958898;28;45536;-70
2021/07/10 06:56:37;;;;;;;;;12.75;10.25;;;;;22.56;62.20;101391.63;4961417;28;45476;-70
2021/07/10 06:59:03;;;;;;;;;12.25;11.50;;;;;22.78;61.99;101382.66;4957274;28;45618;-70
2021/07/10 07:01:28;;;;;;;;;14.75;12.00;;;;;23.05;61.07;101383.00;4958786;28;45488;-70
2021/07/10 07:03:54;;;;;;;;;11.50;10.25;;;;;23.24;60.46;101382.31;4961498;28;46902;-70
2021/07/10 07:06:20;;;;;;;;;13.75;10.75;;;;;23.39;60.66;101389.03;4970034;28;45433;-71
2021/07/10 07:08:45;;;;;;;;;13.75;11.00;;;;;23.48;59.90;101387.34;4961868;28;45489;-70
2021/07/10 07:11:11;;;;;;;;;11.00;9.50;;;;;23.59;59.66;101383.72;4961488;28;45568;-70
2021/07/10 07:13:37;;;;;;;;;14.75;10.50;;;;;23.63;59.73;101393.25;4959203;28;45765;-69
2021/07/10 07:16:02;;;;;;;;;12.50;11.00;;;;;23.55;59.09;101385.00;4958154;28;45596;-69
2021/07/10 07:18:27;;;;;;;;;9.75;9.50;;;;;23.52;59.26;101396.84;4958999;28;45725;-69
2021/07/10 07:20:53;;;;;;;;;14.00;10.50;;;;;23.59;59.48;101371.16;4957236;28;45531;-69
2021/07/10 07:23:18;;;;;;;;;12.25;9.50;;;;;23.88;59.27;101370.47;4960997;28;46247;-68
2021/07/10 07:25:43;;;;;;;;;10.50;9.50;;;;;24.45;59.20;101372.44;4961330;28;45875;-68
2021/07/10 07:28:09;;;;;;;;;11.00;9.50;;;;;25.03;57.62;101376.94;4965235;28;45587;-69
2021/07/10 07:30:34;;;;;;;;;13.00;9.75;;;;;25.43;56.83;101368.66;4961722;28;45318;-69
2021/07/10 07:33:00;;;;;;;;;13.75;11.25;;;;;25.83;56.41;101366.66;4959071;28;46154;-69
2021/07/10 07:35:25;;;;;;;;;13.25;12.00;;;;;26.14;55.35;101373.44;4957838;28;45454;-69
2021/07/10 07:37:51;;;;;;;;;11.50;8.25;;;;;26.34;55.06;101365.22;4957026;28;45713;-69
2021/07/10 07:40:17;;;;;;;;;10.00;8.50;;;;;26.39;54.90;101365.59;4957408;28;45672;-70
2021/07/10 07:42:43;;;;;;;;;10.00;9.00;;;;;26.33;54.55;101350.06;4957756;28;46360;-69
2021/07/10 07:45:10;;;;;;;;;9.00;8.25;;;;;26.34;54.28;101352.59;4970764;28;45401;-69
2021/07/10 07:47:38;;;;;;;;;12.00;10.50;;;;;26.19;54.07;101363.03;4958224;28;49923;-69
2021/07/10 07:50:07;;;;;;;;;11.00;8.75;;;;;26.00;54.07;101355.94;4956968;28;45651;-69
2021/07/10 07:52:32;;;;;;;;;8.25;8.25;;;;;25.91;54.23;101359.53;4953606;28;46136;-69
2021/07/10 07:54:58;;;;;;;;;10.25;9.00;;;;;25.90;53.87;101365.94;4959320;28;45500;-69
2021/07/10 07:57:23;;;;;;;;;9.75;9.75;;;;;25.86;53.65;101358.31;4958148;28;45826;-69
2021/07/10 07:59:48;;;;;;;;;9.75;9.00;;;;;25.74;53.77;101361.19;4961033;28;51443;-69
2021/07/10 08:02:14;;;;;;;;;14.25;11.00;;;;;25.62;53.74;101356.09;4965924;28;45489;-69
2021/07/10 08:04:39;;;;;;;;;9.50;8.50;;;;;25.42;53.61;101349.94;4962806;28;45362;-69
2021/07/10 08:07:04;;;;;;;;;11.75;10.50;;;;;25.25;54.02;101354.25;4958217;28;45366;-69
2021/07/10 08:09:30;;;;;;;;;9.75;9.25;;;;;25.02;54.33;101359.13;4959438;28;45626;-70
2021/07/10 08:11:56;;;;;;;;;8.75;8.50;;;;;24.77;55.16;101362.41;4960839;28;45353;-68
2021/07/10 08:14:22;;;;;;;;;9.00;8.00;;;;;24.53;55.60;101360.97;4961085;28;45703;-69
2021/07/10 08:16:49;;;;;;;;;9.00;8.75;;;;;24.37;54.91;101345.41;4961722;28;45436;-69
2021/07/10 08:19:14;;;;;;;;;9.00;8.50;;;;;24.30;56.56;101356.84;4955348;28;45409;-71
2021/07/10 08:21:41;;;;;;;;;10.00;10.00;;;;;24.25;56.83;101354.56;4953429;28;46893;-71
2021/07/10 08:24:06;;;;;;;;;10.50;8.75;;;;;24.16;55.39;101366.13;4955535;28;45756;-72
2021/07/10 08:26:32;;;;;;;;;10.50;9.25;;;;;24.02;55.85;101356.66;4955973;28;46066;-72
2021/07/10 08:28:58;;;;;;;;;11.25;8.50;;;;;23.93;56.21;101357.47;4955879;28;45348;-71
2021/07/10 08:31:23;;;;;;;;;9.00;8.00;;;;;23.86;55.55;101348.28;4955608;28;45521;-71
2021/07/10 08:33:49;;;;;;;;;11.00;9.00;;;;;23.85;54.87;101351.94;4952634;28;45397;-71
2021/07/10 08:36:14;;;;;;;;;7.75;6.00;;;;;23.82;55.49;101353.06;4962152;28;45376;-72
2021/07/10 08:38:39;;;;;;;;;10.50;10.50;;;;;23.72;56.08;101338.78;4952986;28;45390;-72
2021/07/10 08:41:10;;;;;;;;;8.25;7.50;;;;;23.83;56.07;101345.88;4947985;28;45357;-70
2021/07/10 08:43:38;;;;;;;;;11.50;9.00;;;;;23.81;55.57;101345.16;4955291;28;45378;-71
2021/07/10 08:46:05;;;;;;;;;7.25;6.00;;;;;23.75;55.76;101346.53;4953055;28;45448;-71
2021/07/10 08:48:32;;;;;;;;;9.00;9.00;;;;;23.73;56.18;101347.66;4953653;28;45351;-71
2021/07/10 08:50:59;;;;;;;;;9.50;8.75;;;;;23.73;56.28;101345.84;4954559;28;46140;-72
2021/07/10 08:53:24;;;;;;;;;9.75;8.00;;;;;23.67;55.97;101338.34;4951327;28;45959;-71
2021/07/10 08:55:50;;;;;;;;;7.50;7.50;;;;;23.65;56.19;101346.53;4953897;28;45406;-71
2021/07/10 08:58:20;;;;;;;;;21.75;15.75;;;;;23.62;55.54;101345.91;4953574;28;45510;-72
2021/07/10 09:00:47;;;;;;;;;27.50;25.50;;;;;23.62;56.96;101357.50;4954076;28;45445;-72
2021/07/10 09:03:13;;;;;;;;;9.50;8.00;;;;;23.61;56.00;101354.94;4954113;28;46078;-71
2021/07/10 09:05:39;;;;;;;;;9.50;8.00;;;;;23.58;56.44;101355.22;4954745;28;45472;-70
2021/07/10 09:08:23;;;;;;;;;9.50;7.00;;;;;23.59;56.09;101348.84;4956934;28;45477;-72
2021/07/10 09:10:59;;;;;;;;;9.25;8.00;;;;;23.62;56.22;101351.28;4969352;28;47261;-72
2021/07/10 09:13:50;;;;;;;;;7.00;7.00;;;;;23.69;55.93;101355.97;4952416;28;45874;-72
2021/07/10 09:16:30;;;;;;;;;11.25;6.00;;;;;23.62;56.63;101368.22;4952559;28;45523;-73
2021/07/10 09:19:08;;;;;;;;;5.50;5.50;;;;;23.56;56.93;101363.41;4957100;28;45679;-71
2021/07/10 09:21:50;;;;;;;;;6.75;6.00;;;;;23.47;57.35;101368.72;4951101;28;45738;-72
2021/07/10 09:24:32;;;;;;;;;4.00;4.00;;;;;23.31;57.95;101356.63;4957400;28;45796;-72
2021/07/10 09:27:03;;;;;;;;;7.75;6.00;;;;;23.11;58.38;101336.91;4948647;28;45481;-71
2021/07/10 09:29:35;;;;;;;;;6.00;5.00;;;;;23.25;59.21;101373.28;4955294;28;45586;-71
2021/07/10 09:32:04;;;;;;;;;4.00;4.00;;;;;23.18;56.99;101377.47;4954239;28;46390;-71
2021/07/10 09:34:35;;;;;;;;;4.25;3.75;;;;;23.08;57.97;101369.38;4954699;28;45517;-71
2021/07/10 09:37:10;;;;;;;;;211.50;184.75;;;;;22.97;58.68;101366.75;4952471;28;45430;-72
2021/07/10 09:39:43;;;;;;;;;6.50;4.00;;;;;22.89;58.30;101351.31;4954193;28;45324;-71
2021/07/10 09:42:09;;;;;;;;;3.50;3.00;;;;;22.82;58.94;101343.91;4952514;28;46283;-72
2021/07/10 09:44:47;;;;;;;;;2.50;2.50;;;;;22.75;58.31;101350.75;4954642;28;45497;-71
2021/07/10 09:47:14;;;;;;;;;4.00;4.00;;;;;22.64;59.70;101349.81;4945041;28;46146;-72
2021/07/10 09:49:45;;;;;;;;;3.00;2.00;;;;;22.53;60.10;101349.88;4943091;28;45548;-71
2021/07/10 09:52:19;;;;;;;;;2.00;2.00;;;;;22.46;59.98;101350.53;4940854;28;46230;-70
2021/07/10 09:54:50;;;;;;;;;2.00;2.00;;;;;22.48;59.68;101338.69;4949384;28;45571;-71
2021/07/10 09:57:26;;;;;;;;;1.25;1.25;;;;;22.56;58.24;101340.75;4952777;28;45255;-72
2021/07/10 09:59:56;;;;;;;;;2.00;2.00;;;;;22.70;59.30;101343.09;4955437;28;45581;-71
2021/07/10 10:02:35;;;;;;;;;2.50;2.25;;;;;22.97;58.39;101355.16;4952272;28;47920;-70
2021/07/10 10:05:02;;;;;;;;;4.00;3.00;;;;;23.25;59.68;101335.72;4948359;28;45587;-72
2021/07/10 10:07:27;;;;;;;;;2.50;1.75;;;;;23.53;59.86;101326.09;4942777;28;45476;-72
2021/07/10 10:09:58;;;;;;;;;4.00;2.25;;;;;23.80;58.91;101322.81;4951934;28;45728;-70
2021/07/10 10:12:24;;;;;;;;;3.75;3.75;;;;;24.03;59.28;101331.50;4954825;28;47416;-71
2021/07/10 10:14:52;;;;;;;;;2.00;2.00;;;;;24.13;57.10;101334.22;4954172;28;45615;-70
2021/07/10 10:17:22;;;;;;;;;3.25;2.00;;;;;24.12;56.97;101333.38;4953066;28;45615;-70
2021/07/10 10:19:47;;;;;;;;;2.00;2.00;;;;;24.13;57.14;101339.59;4954142;28;45420;-70
2021/07/10 10:22:15;;;;;;;;;1.50;1.50;;;;;24.13;57.04;101336.91;4956337;28;47003;-69
2021/07/10 10:24:43;;;;;;;;;7.25;7.00;;;;;24.03;55.92;101339.56;4956723;28;45794;-69
2021/07/10 10:27:10;;;;;;;;;5.00;3.75;;;;;24.01;57.31;101341.50;4963856;28;46446;-69
2021/07/10 10:29:36;;;;;;;;;3.00;2.25;;;;;24.00;55.51;101337.13;4965414;28;45728;-69
2021/07/10 10:32:03;;;;;;;;;2.00;2.00;;;;;23.87;55.87;101339.25;4957356;28;46076;-68
2021/07/10 10:34:28;;;;;;;;;3.25;3.25;;;;;23.78;57.13;101348.13;4958511;28;45516;-69
2021/07/10 10:36:56;;;;;;;;;2.75;2.75;;;;;23.63;57.41;101345.78;4963492;28;45363;-70
2021/07/10 10:39:29;;;;;;;;;2.00;2.00;;;;;23.56;57.12;101341.09;4957774;28;45382;-68
2021/07/10 10:42:03;;;;;;;;;2.00;2.00;;;;;23.67;57.39;101322.22;4956996;28;47193;-68
2021/07/10 10:44:41;;;;;;;;;1.00;1.00;;;;;24.01;56.80;101321.88;4956976;28;45705;-68
2021/07/10 10:47:09;;;;;;;;;2.50;2.00;;;;;24.31;57.17;101319.09;4956613;28;45380;-68
2021/07/10 10:49:39;;;;;;;;;2.25;2.00;;;;;24.55;54.86;101312.50;4955343;28;45631;-68
2021/07/10 10:52:29;;;;;;;;;4.25;4.25;;;;;24.79;55.01;101309.31;4955890;28;45505;-68
2021/07/10 10:54:58;;;;;;;;;5.75;3.00;;;;;25.10;55.65;101310.84;4955316;28;45618;-68
2021/07/10 10:57:42;;;;;;;;;4.50;3.50;;;;;25.41;55.18;101313.28;4956947;28;45571;-68
2021/07/10 11:00:16;;;;;;;;;3.50;3.50;;;;;25.65;53.96;101315.44;4963191;28;45509;-69
2021/07/10 11:02:51;;;;;;;;;2.50;2.50;;;;;25.76;53.07;101316.13;4957736;28;46517;-70
2021/07/10 11:05:32;;;;;;;;;3.00;2.00;;;;;25.70;52.66;101310.47;4955274;28;45620;-71
2021/07/10 11:08:25;;;;;;;;;9.75;8.00;;;;;25.75;52.59;101316.28;4954087;28;45536;-70
2021/07/10 11:10:53;;;;;;;;;16.50;11.00;;;;;25.63;51.98;101285.13;4949009;28;45582;-71
2021/07/10 11:13:39;;;;;;;;;3.25;3.00;;;;;25.84;51.43;101317.19;4957303;28;46173;-70